Terminal Aerodrome Forecast
Issued by NWS Melbourne, FL

Home | Current Version | Previous Version | Text Only | Print | Product List | Glossary On
Versions: 1 2 3 4 5 6 7 8 9 10 11 12 13 14
000
FTUS42 KMLB 021120
TAFMLB
TAF
KMLB 021120Z 0212/0312 17003KT P6SM FEW015 SCT250
     FM021400 13011KT P6SM SCT030 SCT250
     FM021800 12012G18KT P6SM FEW030 SCT250
     FM030200 14007KT P6SM SCT250=

USA.gov is the U.S. government's official web portal to all federal, state and local government web resources and services.